sensor_id;sensor_type;location;lat;lon;timestamp;temperature;humidity
42743;DHT22;28397;44.552;-0.848;2023-04-24T00:00:01;13.70;99.90
42743;DHT22;28397;44.552;-0.848;2023-04-24T00:02:30;13.70;99.90
42743;DHT22;28397;44.552;-0.848;2023-04-24T00:04:57;13.70;99.90
42743;DHT22;28397;44.552;-0.848;2023-04-24T00:07:22;13.70;99.90
42743;DHT22;28397;44.552;-0.848;2023-04-24T00:09:48;13.70;99.90
42743;DHT22;28397;44.552;-0.848;2023-04-24T00:12:14;13.70;99.90
42743;DHT22;28397;44.552;-0.848;2023-04-24T00:14:39;13.70;99.90
42743;DHT22;28397;44.552;-0.848;2023-04-24T00:17:05;13.60;99.90
42743;DHT22;28397;44.552;-0.848;2023-04-24T00:19:31;13.70;99.90
42743;DHT22;28397;44.552;-0.848;2023-04-24T00:21:57;13.60;99.90
42743;DHT22;28397;44.552;-0.848;2023-04-24T00:24:22;13.70;99.90
42743;DHT22;28397;44.552;-0.848;2023-04-24T00:26:48;13.70;99.90
42743;DHT22;28397;44.552;-0.848;2023-04-24T00:29:13;13.70;99.90
42743;DHT22;28397;44.552;-0.848;2023-04-24T00:31:39;13.60;99.90
42743;DHT22;28397;44.552;-0.848;2023-04-24T00:34:05;13.60;99.90
42743;DHT22;28397;44.552;-0.848;2023-04-24T00:36:31;13.50;99.90
42743;DHT22;28397;44.552;-0.848;2023-04-24T00:38:58;13.60;99.90
42743;DHT22;28397;44.552;-0.848;2023-04-24T00:41:24;13.60;99.90
42743;DHT22;28397;44.552;-0.848;2023-04-24T00:43:52;13.70;99.90
42743;DHT22;28397;44.552;-0.848;2023-04-24T00:46:17;13.80;99.90
42743;DHT22;28397;44.552;-0.848;2023-04-24T00:48:43;13.80;99.90
42743;DHT22;28397;44.552;-0.848;2023-04-24T00:51:09;13.80;99.90
42743;DHT22;28397;44.552;-0.848;2023-04-24T00:53:35;13.70;99.90
42743;DHT22;28397;44.552;-0.848;2023-04-24T00:56:01;13.70;99.90
42743;DHT22;28397;44.552;-0.848;2023-04-24T00:58:27;13.60;99.90
42743;DHT22;28397;44.552;-0.848;2023-04-24T01:00:54;13.50;99.90
42743;DHT22;28397;44.552;-0.848;2023-04-24T01:03:22;13.50;99.90
42743;DHT22;28397;44.552;-0.848;2023-04-24T01:05:49;13.50;99.90
42743;DHT22;28397;44.552;-0.848;2023-04-24T01:08:16;13.50;99.90
42743;DHT22;28397;44.552;-0.848;2023-04-24T01:10:44;13.50;99.90
42743;DHT22;28397;44.552;-0.848;2023-04-24T01:13:10;13.40;99.90
42743;DHT22;28397;44.552;-0.848;2023-04-24T01:15:36;13.50;99.90
42743;DHT22;28397;44.552;-0.848;2023-04-24T01:18:02;13.50;99.90
42743;DHT22;28397;44.552;-0.848;2023-04-24T01:20:29;13.50;99.90
42743;DHT22;28397;44.552;-0.848;2023-04-24T01:22:55;13.50;99.90
42743;DHT22;28397;44.552;-0.848;2023-04-24T01:25:23;13.60;99.90
42743;DHT22;28397;44.552;-0.848;2023-04-24T01:27:50;13.70;99.90
42743;DHT22;28397;44.552;-0.848;2023-04-24T01:30:17;13.70;99.90
42743;DHT22;28397;44.552;-0.848;2023-04-24T01:32:43;13.70;99.90
42743;DHT22;28397;44.552;-0.848;2023-04-24T01:35:10;13.80;99.90
42743;DHT22;28397;44.552;-0.848;2023-04-24T01:37:36;13.80;99.90
42743;DHT22;28397;44.552;-0.848;2023-04-24T01:40:07;13.80;99.90
42743;DHT22;28397;44.552;-0.848;2023-04-24T01:42:34;13.70;99.90
42743;DHT22;28397;44.552;-0.848;2023-04-24T01:45:01;13.70;99.90
42743;DHT22;28397;44.552;-0.848;2023-04-24T01:47:27;13.70;99.90
42743;DHT22;28397;44.552;-0.848;2023-04-24T01:49:53;13.60;99.90
42743;DHT22;28397;44.552;-0.848;2023-04-24T01:52:19;13.70;99.90
42743;DHT22;28397;44.552;-0.848;2023-04-24T01:54:45;13.60;99.90
42743;DHT22;28397;44.552;-0.848;2023-04-24T01:57:11;13.70;99.90
42743;DHT22;28397;44.552;-0.848;2023-04-24T01:59:36;13.60;99.90
42743;DHT22;28397;44.552;-0.848;2023-04-24T02:02:03;13.60;99.90
42743;DHT22;28397;44.552;-0.848;2023-04-24T02:04:29;13.60;99.90
42743;DHT22;28397;44.552;-0.848;2023-04-24T02:06:54;13.60;99.90
42743;DHT22;28397;44.552;-0.848;2023-04-24T02:09:20;13.50;99.90
42743;DHT22;28397;44.552;-0.848;2023-04-24T02:11:46;13.60;99.90
42743;DHT22;28397;44.552;-0.848;2023-04-24T02:14:12;13.50;99.90
42743;DHT22;28397;44.552;-0.848;2023-04-24T02:16:38;13.40;99.90
42743;DHT22;28397;44.552;-0.848;2023-04-24T02:19:04;13.50;99.90
42743;DHT22;28397;44.552;-0.848;2023-04-24T02:21:30;13.40;99.90
42743;DHT22;28397;44.552;-0.848;2023-04-24T02:23:56;13.40;99.90
42743;DHT22;28397;44.552;-0.848;2023-04-24T02:26:22;13.50;99.90
42743;DHT22;28397;44.552;-0.848;2023-04-24T02:28:48;13.50;99.90
42743;DHT22;28397;44.552;-0.848;2023-04-24T02:31:14;13.50;99.90
42743;DHT22;28397;44.552;-0.848;2023-04-24T02:33:39;13.50;99.90
42743;DHT22;28397;44.552;-0.848;2023-04-24T02:36:05;13.50;99.90
42743;DHT22;28397;44.552;-0.848;2023-04-24T02:38:31;13.50;99.90
42743;DHT22;28397;44.552;-0.848;2023-04-24T02:40:57;13.40;99.90
42743;DHT22;28397;44.552;-0.848;2023-04-24T02:43:22;13.30;99.90
42743;DHT22;28397;44.552;-0.848;2023-04-24T02:45:48;13.30;99.90
42743;DHT22;28397;44.552;-0.848;2023-04-24T02:48:14;13.20;99.90
42743;DHT22;28397;44.552;-0.848;2023-04-24T02:50:40;13.20;99.90
42743;DHT22;28397;44.552;-0.848;2023-04-24T02:53:06;13.20;99.90
42743;DHT22;28397;44.552;-0.848;2023-04-24T02:55:31;13.10;99.90
42743;DHT22;28397;44.552;-0.848;2023-04-24T02:57:57;13.10;99.90
42743;DHT22;28397;44.552;-0.848;2023-04-24T03:00:23;13.00;99.90
42743;DHT22;28397;44.552;-0.848;2023-04-24T03:02:48;13.10;99.90
42743;DHT22;28397;44.552;-0.848;2023-04-24T03:05:15;13.00;99.90
42743;DHT22;28397;44.552;-0.848;2023-04-24T03:07:41;13.00;99.90
42743;DHT22;28397;44.552;-0.848;2023-04-24T03:10:07;13.00;99.90
42743;DHT22;28397;44.552;-0.848;2023-04-24T03:12:33;13.00;99.90
42743;DHT22;28397;44.552;-0.848;2023-04-24T03:14:58;13.00;99.90
42743;DHT22;28397;44.552;-0.848;2023-04-24T03:17:24;12.90;99.90
42743;DHT22;28397;44.552;-0.848;2023-04-24T03:19:50;12.90;99.90
42743;DHT22;28397;44.552;-0.848;2023-04-24T03:22:16;12.80;99.90
42743;DHT22;28397;44.552;-0.848;2023-04-24T03:24:42;12.80;99.90
42743;DHT22;28397;44.552;-0.848;2023-04-24T03:27:07;12.70;99.90
42743;DHT22;28397;44.552;-0.848;2023-04-24T03:29:33;12.70;99.90
42743;DHT22;28397;44.552;-0.848;2023-04-24T03:31:59;12.60;99.90
42743;DHT22;28397;44.552;-0.848;2023-04-24T03:34:24;12.50;99.90
42743;DHT22;28397;44.552;-0.848;2023-04-24T03:36:50;12.50;99.90
42743;DHT22;28397;44.552;-0.848;2023-04-24T03:39:16;12.50;99.90
42743;DHT22;28397;44.552;-0.848;2023-04-24T03:41:41;12.50;99.90
42743;DHT22;28397;44.552;-0.848;2023-04-24T03:44:07;12.50;99.90
42743;DHT22;28397;44.552;-0.848;2023-04-24T03:46:33;12.40;99.90
42743;DHT22;28397;44.552;-0.848;2023-04-24T03:48:58;12.30;99.90
42743;DHT22;28397;44.552;-0.848;2023-04-24T03:51:24;12.30;99.90
42743;DHT22;28397;44.552;-0.848;2023-04-24T03:53:50;12.30;99.90
42743;DHT22;28397;44.552;-0.848;2023-04-24T03:56:16;12.20;99.90
42743;DHT22;28397;44.552;-0.848;2023-04-24T03:58:42;12.10;99.90
42743;DHT22;28397;44.552;-0.848;2023-04-24T04:01:08;12.00;99.90
42743;DHT22;28397;44.552;-0.848;2023-04-24T04:03:33;12.00;99.90
42743;DHT22;28397;44.552;-0.848;2023-04-24T04:05:59;11.90;99.90
42743;DHT22;28397;44.552;-0.848;2023-04-24T04:08:25;11.80;99.90
42743;DHT22;28397;44.552;-0.848;2023-04-24T04:10:51;11.70;99.90
42743;DHT22;28397;44.552;-0.848;2023-04-24T04:13:16;11.70;99.90
42743;DHT22;28397;44.552;-0.848;2023-04-24T04:15:42;11.70;99.90
42743;DHT22;28397;44.552;-0.848;2023-04-24T04:18:08;11.70;99.90
42743;DHT22;28397;44.552;-0.848;2023-04-24T04:20:34;11.60;99.90
42743;DHT22;28397;44.552;-0.848;2023-04-24T04:22:59;11.60;99.90
42743;DHT22;28397;44.552;-0.848;2023-04-24T04:25:25;11.50;99.90
42743;DHT22;28397;44.552;-0.848;2023-04-24T04:27:51;11.50;99.90
42743;DHT22;28397;44.552;-0.848;2023-04-24T04:30:17;11.50;99.90
42743;DHT22;28397;44.552;-0.848;2023-04-24T04:32:43;11.40;99.90
42743;DHT22;28397;44.552;-0.848;2023-04-24T04:35:09;11.30;99.90
42743;DHT22;28397;44.552;-0.848;2023-04-24T04:37:35;11.20;99.90
42743;DHT22;28397;44.552;-0.848;2023-04-24T04:40:02;11.10;99.90
42743;DHT22;28397;44.552;-0.848;2023-04-24T04:42:37;11.00;99.90
42743;DHT22;28397;44.552;-0.848;2023-04-24T04:45:07;10.90;99.90
42743;DHT22;28397;44.552;-0.848;2023-04-24T04:47:34;11.00;99.90
42743;DHT22;28397;44.552;-0.848;2023-04-24T04:50:00;11.00;99.90
42743;DHT22;28397;44.552;-0.848;2023-04-24T04:52:26;11.00;99.90
42743;DHT22;28397;44.552;-0.848;2023-04-24T04:54:52;10.90;99.90
42743;DHT22;28397;44.552;-0.848;2023-04-24T04:57:18;10.80;99.90
42743;DHT22;28397;44.552;-0.848;2023-04-24T04:59:44;10.70;99.90
42743;DHT22;28397;44.552;-0.848;2023-04-24T05:02:10;10.60;99.90
42743;DHT22;28397;44.552;-0.848;2023-04-24T05:04:36;10.50;99.90
42743;DHT22;28397;44.552;-0.848;2023-04-24T05:07:01;10.60;99.90
42743;DHT22;28397;44.552;-0.848;2023-04-24T05:09:27;10.60;99.90
42743;DHT22;28397;44.552;-0.848;2023-04-24T05:11:55;10.60;99.90
42743;DHT22;28397;44.552;-0.848;2023-04-24T05:14:20;10.60;99.90
42743;DHT22;28397;44.552;-0.848;2023-04-24T05:16:47;10.60;99.90
42743;DHT22;28397;44.552;-0.848;2023-04-24T05:19:13;10.70;99.90
42743;DHT22;28397;44.552;-0.848;2023-04-24T05:21:39;10.70;99.90
42743;DHT22;28397;44.552;-0.848;2023-04-24T05:24:06;10.60;99.90
42743;DHT22;28397;44.552;-0.848;2023-04-24T05:26:32;10.60;99.90
42743;DHT22;28397;44.552;-0.848;2023-04-24T05:28:57;10.70;99.90
42743;DHT22;28397;44.552;-0.848;2023-04-24T05:31:23;10.70;99.90
42743;DHT22;28397;44.552;-0.848;2023-04-24T05:33:49;10.80;99.90
42743;DHT22;28397;44.552;-0.848;2023-04-24T05:36:14;10.90;99.90
42743;DHT22;28397;44.552;-0.848;2023-04-24T05:38:40;10.90;99.90
42743;DHT22;28397;44.552;-0.848;2023-04-24T05:41:06;10.90;99.90
42743;DHT22;28397;44.552;-0.848;2023-04-24T05:43:31;11.00;99.90
42743;DHT22;28397;44.552;-0.848;2023-04-24T05:45:57;11.10;99.90
42743;DHT22;28397;44.552;-0.848;2023-04-24T05:48:23;11.20;99.90
42743;DHT22;28397;44.552;-0.848;2023-04-24T05:50:49;11.10;99.90
42743;DHT22;28397;44.552;-0.848;2023-04-24T05:53:14;11.20;99.90
42743;DHT22;28397;44.552;-0.848;2023-04-24T05:55:41;11.20;99.90
42743;DHT22;28397;44.552;-0.848;2023-04-24T05:58:06;11.20;99.90
42743;DHT22;28397;44.552;-0.848;2023-04-24T06:00:32;11.20;99.90
42743;DHT22;28397;44.552;-0.848;2023-04-24T06:03:00;11.20;99.90
42743;DHT22;28397;44.552;-0.848;2023-04-24T06:05:26;11.20;99.90
42743;DHT22;28397;44.552;-0.848;2023-04-24T06:07:51;11.20;99.90
42743;DHT22;28397;44.552;-0.848;2023-04-24T06:10:17;11.30;99.90
42743;DHT22;28397;44.552;-0.848;2023-04-24T06:12:43;11.30;99.90
42743;DHT22;28397;44.552;-0.848;2023-04-24T06:15:09;11.40;99.90
42743;DHT22;28397;44.552;-0.848;2023-04-24T06:17:35;11.40;99.90
42743;DHT22;28397;44.552;-0.848;2023-04-24T06:20:01;11.50;99.90
42743;DHT22;28397;44.552;-0.848;2023-04-24T06:22:30;11.50;99.90
42743;DHT22;28397;44.552;-0.848;2023-04-24T06:24:56;11.60;99.90
42743;DHT22;28397;44.552;-0.848;2023-04-24T06:27:22;11.70;99.90
42743;DHT22;28397;44.552;-0.848;2023-04-24T06:29:47;11.80;99.90
42743;DHT22;28397;44.552;-0.848;2023-04-24T06:32:22;11.80;99.90
42743;DHT22;28397;44.552;-0.848;2023-04-24T06:34:48;11.90;99.90
42743;DHT22;28397;44.552;-0.848;2023-04-24T06:37:14;11.90;99.90
42743;DHT22;28397;44.552;-0.848;2023-04-24T06:39:41;12.00;99.90
42743;DHT22;28397;44.552;-0.848;2023-04-24T06:42:07;12.10;99.90
42743;DHT22;28397;44.552;-0.848;2023-04-24T06:44:35;12.00;99.90
42743;DHT22;28397;44.552;-0.848;2023-04-24T06:47:06;12.10;99.90
42743;DHT22;28397;44.552;-0.848;2023-04-24T06:49:33;12.10;99.90
42743;DHT22;28397;44.552;-0.848;2023-04-24T06:51:58;12.10;99.90
42743;DHT22;28397;44.552;-0.848;2023-04-24T06:54:24;12.10;99.90
42743;DHT22;28397;44.552;-0.848;2023-04-24T06:56:49;12.20;99.90
42743;DHT22;28397;44.552;-0.848;2023-04-24T06:59:16;12.20;99.90
42743;DHT22;28397;44.552;-0.848;2023-04-24T07:01:42;12.30;99.90
42743;DHT22;28397;44.552;-0.848;2023-04-24T07:04:08;12.30;99.90
42743;DHT22;28397;44.552;-0.848;2023-04-24T07:06:33;12.30;99.90
42743;DHT22;28397;44.552;-0.848;2023-04-24T07:09:01;12.30;99.90
42743;DHT22;28397;44.552;-0.848;2023-04-24T07:11:27;12.30;99.90
42743;DHT22;28397;44.552;-0.848;2023-04-24T07:13:55;12.30;99.90
42743;DHT22;28397;44.552;-0.848;2023-04-24T07:16:21;12.30;99.90
42743;DHT22;28397;44.552;-0.848;2023-04-24T07:18:46;12.30;99.90
42743;DHT22;28397;44.552;-0.848;2023-04-24T07:21:12;12.40;99.90
42743;DHT22;28397;44.552;-0.848;2023-04-24T07:23:38;12.30;99.90
42743;DHT22;28397;44.552;-0.848;2023-04-24T07:26:04;12.40;99.90
42743;DHT22;28397;44.552;-0.848;2023-04-24T07:28:29;12.40;99.90
42743;DHT22;28397;44.552;-0.848;2023-04-24T07:30:58;12.40;99.90
42743;DHT22;28397;44.552;-0.848;2023-04-24T07:33:25;12.50;99.90
42743;DHT22;28397;44.552;-0.848;2023-04-24T07:35:52;12.50;99.90
42743;DHT22;28397;44.552;-0.848;2023-04-24T07:38:18;12.50;99.90
42743;DHT22;28397;44.552;-0.848;2023-04-24T07:40:47;12.60;99.90
42743;DHT22;28397;44.552;-0.848;2023-04-24T07:43:13;12.60;99.90
42743;DHT22;28397;44.552;-0.848;2023-04-24T07:45:39;12.70;99.90
42743;DHT22;28397;44.552;-0.848;2023-04-24T07:48:05;12.70;99.90
42743;DHT22;28397;44.552;-0.848;2023-04-24T07:50:31;12.80;99.90
42743;DHT22;28397;44.552;-0.848;2023-04-24T07:52:57;12.80;99.90
42743;DHT22;28397;44.552;-0.848;2023-04-24T07:55:23;12.90;99.90
42743;DHT22;28397;44.552;-0.848;2023-04-24T07:57:49;13.00;99.90
42743;DHT22;28397;44.552;-0.848;2023-04-24T08:00:15;13.00;99.90
42743;DHT22;28397;44.552;-0.848;2023-04-24T08:02:40;13.00;99.90
42743;DHT22;28397;44.552;-0.848;2023-04-24T08:05:07;13.10;99.90
42743;DHT22;28397;44.552;-0.848;2023-04-24T08:07:33;13.10;99.90
42743;DHT22;28397;44.552;-0.848;2023-04-24T08:09:58;13.20;99.90
42743;DHT22;28397;44.552;-0.848;2023-04-24T08:12:25;13.20;99.90
42743;DHT22;28397;44.552;-0.848;2023-04-24T08:14:50;13.30;99.90
42743;DHT22;28397;44.552;-0.848;2023-04-24T08:17:17;13.30;99.90
42743;DHT22;28397;44.552;-0.848;2023-04-24T08:19:44;13.30;99.90
42743;DHT22;28397;44.552;-0.848;2023-04-24T08:22:17;13.30;99.90
42743;DHT22;28397;44.552;-0.848;2023-04-24T08:24:42;13.40;99.90
42743;DHT22;28397;44.552;-0.848;2023-04-24T08:27:09;13.40;99.90
42743;DHT22;28397;44.552;-0.848;2023-04-24T08:29:36;13.40;99.90
42743;DHT22;28397;44.552;-0.848;2023-04-24T08:32:02;13.40;99.90
42743;DHT22;28397;44.552;-0.848;2023-04-24T08:34:27;13.50;99.90
42743;DHT22;28397;44.552;-0.848;2023-04-24T08:36:53;13.60;99.90
42743;DHT22;28397;44.552;-0.848;2023-04-24T08:39:19;13.60;99.90
42743;DHT22;28397;44.552;-0.848;2023-04-24T08:41:45;13.70;99.90
42743;DHT22;28397;44.552;-0.848;2023-04-24T08:44:11;13.70;99.90
42743;DHT22;28397;44.552;-0.848;2023-04-24T08:46:39;13.70;99.90
42743;DHT22;28397;44.552;-0.848;2023-04-24T08:49:06;13.70;99.90
42743;DHT22;28397;44.552;-0.848;2023-04-24T08:51:31;13.80;99.90
42743;DHT22;28397;44.552;-0.848;2023-04-24T08:53:58;13.80;99.90
42743;DHT22;28397;44.552;-0.848;2023-04-24T08:56:24;13.90;99.90
42743;DHT22;28397;44.552;-0.848;2023-04-24T08:58:54;13.90;99.90
42743;DHT22;28397;44.552;-0.848;2023-04-24T09:01:20;14.00;99.90
42743;DHT22;28397;44.552;-0.848;2023-04-24T09:03:48;14.00;99.90
42743;DHT22;28397;44.552;-0.848;2023-04-24T09:06:16;14.00;99.90
42743;DHT22;28397;44.552;-0.848;2023-04-24T09:08:43;14.00;99.90
42743;DHT22;28397;44.552;-0.848;2023-04-24T09:11:11;14.10;99.90
42743;DHT22;28397;44.552;-0.848;2023-04-24T09:13:37;14.20;99.90
42743;DHT22;28397;44.552;-0.848;2023-04-24T09:16:03;14.20;99.90
42743;DHT22;28397;44.552;-0.848;2023-04-24T09:18:29;14.20;99.90
42743;DHT22;28397;44.552;-0.848;2023-04-24T09:21:04;14.30;99.90
42743;DHT22;28397;44.552;-0.848;2023-04-24T09:23:32;14.30;99.90
42743;DHT22;28397;44.552;-0.848;2023-04-24T09:25:59;14.40;99.90
42743;DHT22;28397;44.552;-0.848;2023-04-24T09:28:32;14.50;99.90
42743;DHT22;28397;44.552;-0.848;2023-04-24T09:31:14;14.70;99.90
42743;DHT22;28397;44.552;-0.848;2023-04-24T09:34:03;14.80;99.90
42743;DHT22;28397;44.552;-0.848;2023-04-24T09:36:53;14.80;99.90
42743;DHT22;28397;44.552;-0.848;2023-04-24T09:39:19;14.70;99.90
42743;DHT22;28397;44.552;-0.848;2023-04-24T09:41:53;14.80;99.90
42743;DHT22;28397;44.552;-0.848;2023-04-24T09:44:20;15.00;99.90
42743;DHT22;28397;44.552;-0.848;2023-04-24T09:46:56;15.10;99.90
42743;DHT22;28397;44.552;-0.848;2023-04-24T09:49:32;15.10;99.90
42743;DHT22;28397;44.552;-0.848;2023-04-24T09:52:09;15.20;99.90
42743;DHT22;28397;44.552;-0.848;2023-04-24T09:54:36;15.30;99.90
42743;DHT22;28397;44.552;-0.848;2023-04-24T09:57:02;15.30;99.90
42743;DHT22;28397;44.552;-0.848;2023-04-24T09:59:29;15.30;99.90
42743;DHT22;28397;44.552;-0.848;2023-04-24T10:01:55;15.40;99.90
42743;DHT22;28397;44.552;-0.848;2023-04-24T10:04:26;15.40;99.90
42743;DHT22;28397;44.552;-0.848;2023-04-24T10:06:53;15.40;99.90
42743;DHT22;28397;44.552;-0.848;2023-04-24T10:09:25;15.30;99.90
42743;DHT22;28397;44.552;-0.848;2023-04-24T10:11:52;15.30;99.90
42743;DHT22;28397;44.552;-0.848;2023-04-24T10:14:25;15.30;99.90
42743;DHT22;28397;44.552;-0.848;2023-04-24T10:16:54;15.40;99.90
42743;DHT22;28397;44.552;-0.848;2023-04-24T10:19:25;15.40;99.90
42743;DHT22;28397;44.552;-0.848;2023-04-24T10:21:51;15.40;99.90
42743;DHT22;28397;44.552;-0.848;2023-04-24T10:24:18;15.30;99.90
42743;DHT22;28397;44.552;-0.848;2023-04-24T10:26:46;15.40;99.90
42743;DHT22;28397;44.552;-0.848;2023-04-24T10:29:18;15.50;99.90
42743;DHT22;28397;44.552;-0.848;2023-04-24T10:31:44;15.50;99.90
42743;DHT22;28397;44.552;-0.848;2023-04-24T10:34:11;15.50;99.90
42743;DHT22;28397;44.552;-0.848;2023-04-24T10:36:40;15.50;99.90
42743;DHT22;28397;44.552;-0.848;2023-04-24T10:39:11;15.70;99.90
42743;DHT22;28397;44.552;-0.848;2023-04-24T10:41:37;15.70;99.90
42743;DHT22;28397;44.552;-0.848;2023-04-24T10:44:13;15.70;99.90
42743;DHT22;28397;44.552;-0.848;2023-04-24T10:46:44;15.60;99.90
42743;DHT22;28397;44.552;-0.848;2023-04-24T10:49:10;15.60;99.90
42743;DHT22;28397;44.552;-0.848;2023-04-24T10:51:52;15.50;99.90
42743;DHT22;28397;44.552;-0.848;2023-04-24T11:02:40;15.50;99.90
42743;DHT22;28397;44.552;-0.848;2023-04-24T11:05:09;15.70;99.90
42743;DHT22;28397;44.552;-0.848;2023-04-24T11:10:33;15.90;99.90
42743;DHT22;28397;44.552;-0.848;2023-04-24T11:13:03;15.80;99.90
42743;DHT22;28397;44.552;-0.848;2023-04-24T11:15:28;15.60;99.90
42743;DHT22;28397;44.552;-0.848;2023-04-24T11:17:55;15.80;99.90
42743;DHT22;28397;44.552;-0.848;2023-04-24T11:20:23;15.90;99.90
42743;DHT22;28397;44.552;-0.848;2023-04-24T11:22:53;16.10;99.90
42743;DHT22;28397;44.552;-0.848;2023-04-24T11:25:23;16.20;99.90
42743;DHT22;28397;44.552;-0.848;2023-04-24T11:27:50;16.50;99.90
42743;DHT22;28397;44.552;-0.848;2023-04-24T11:30:29;16.50;99.90
42743;DHT22;28397;44.552;-0.848;2023-04-24T11:33:05;16.40;99.90
42743;DHT22;28397;44.552;-0.848;2023-04-24T11:35:36;16.40;99.90
42743;DHT22;28397;44.552;-0.848;2023-04-24T11:38:04;16.30;99.90
42743;DHT22;28397;44.552;-0.848;2023-04-24T11:40:30;16.40;99.90
42743;DHT22;28397;44.552;-0.848;2023-04-24T11:42:56;16.50;99.90
42743;DHT22;28397;44.552;-0.848;2023-04-24T11:45:27;16.30;99.90
42743;DHT22;28397;44.552;-0.848;2023-04-24T11:47:53;16.20;99.90
42743;DHT22;28397;44.552;-0.848;2023-04-24T11:50:21;16.40;99.90
42743;DHT22;28397;44.552;-0.848;2023-04-24T11:52:49;16.50;99.90
42743;DHT22;28397;44.552;-0.848;2023-04-24T11:57:48;16.80;99.90
42743;DHT22;28397;44.552;-0.848;2023-04-24T12:00:22;16.80;99.90
42743;DHT22;28397;44.552;-0.848;2023-04-24T12:02:49;16.60;99.90
42743;DHT22;28397;44.552;-0.848;2023-04-24T12:05:25;16.50;99.90
42743;DHT22;28397;44.552;-0.848;2023-04-24T12:07:52;16.40;99.90
42743;DHT22;28397;44.552;-0.848;2023-04-24T12:10:26;16.30;99.90
42743;DHT22;28397;44.552;-0.848;2023-04-24T12:12:53;16.40;99.90
42743;DHT22;28397;44.552;-0.848;2023-04-24T12:15:20;16.50;99.90
42743;DHT22;28397;44.552;-0.848;2023-04-24T12:17:46;16.60;99.90
42743;DHT22;28397;44.552;-0.848;2023-04-24T12:20:12;16.60;99.90
42743;DHT22;28397;44.552;-0.848;2023-04-24T12:25:18;16.50;99.90
42743;DHT22;28397;44.552;-0.848;2023-04-24T12:27:44;16.40;99.90
42743;DHT22;28397;44.552;-0.848;2023-04-24T12:30:15;16.50;99.90
42743;DHT22;28397;44.552;-0.848;2023-04-24T12:32:43;16.50;99.90
42743;DHT22;28397;44.552;-0.848;2023-04-24T12:35:10;16.50;99.90
42743;DHT22;28397;44.552;-0.848;2023-04-24T12:37:36;16.60;99.90
42743;DHT22;28397;44.552;-0.848;2023-04-24T12:40:03;16.60;99.90
42743;DHT22;28397;44.552;-0.848;2023-04-24T12:42:31;16.60;99.90
42743;DHT22;28397;44.552;-0.848;2023-04-24T12:44:58;16.80;99.90
42743;DHT22;28397;44.552;-0.848;2023-04-24T12:47:25;17.00;99.90
42743;DHT22;28397;44.552;-0.848;2023-04-24T12:49:51;17.20;99.90
42743;DHT22;28397;44.552;-0.848;2023-04-24T12:52:27;17.50;99.90
42743;DHT22;28397;44.552;-0.848;2023-04-24T12:54:55;17.60;99.90
42743;DHT22;28397;44.552;-0.848;2023-04-24T12:57:21;17.50;99.90
42743;DHT22;28397;44.552;-0.848;2023-04-24T12:59:47;17.70;99.90
42743;DHT22;28397;44.552;-0.848;2023-04-24T13:02:13;17.90;99.90
42743;DHT22;28397;44.552;-0.848;2023-04-24T13:04:39;18.10;99.90
42743;DHT22;28397;44.552;-0.848;2023-04-24T13:07:05;18.30;99.90
42743;DHT22;28397;44.552;-0.848;2023-04-24T13:09:31;18.50;99.90
42743;DHT22;28397;44.552;-0.848;2023-04-24T13:11:57;18.70;99.90
42743;DHT22;28397;44.552;-0.848;2023-04-24T13:14:23;18.60;99.90
42743;DHT22;28397;44.552;-0.848;2023-04-24T13:16:49;18.50;99.90
42743;DHT22;28397;44.552;-0.848;2023-04-24T13:19:15;18.80;99.90
42743;DHT22;28397;44.552;-0.848;2023-04-24T13:21:40;19.20;99.90
42743;DHT22;28397;44.552;-0.848;2023-04-24T13:24:06;19.00;99.90
42743;DHT22;28397;44.552;-0.848;2023-04-24T13:26:33;19.00;99.90
42743;DHT22;28397;44.552;-0.848;2023-04-24T13:28:59;19.20;99.90
42743;DHT22;28397;44.552;-0.848;2023-04-24T13:31:25;19.40;99.90
42743;DHT22;28397;44.552;-0.848;2023-04-24T13:33:50;19.40;99.90
42743;DHT22;28397;44.552;-0.848;2023-04-24T13:36:16;19.50;99.90
42743;DHT22;28397;44.552;-0.848;2023-04-24T13:38:43;19.40;99.90
42743;DHT22;28397;44.552;-0.848;2023-04-24T13:41:10;19.20;99.90
42743;DHT22;28397;44.552;-0.848;2023-04-24T13:43:35;19.20;99.90
42743;DHT22;28397;44.552;-0.848;2023-04-24T13:46:01;19.60;99.90
42743;DHT22;28397;44.552;-0.848;2023-04-24T13:48:29;19.50;99.90
42743;DHT22;28397;44.552;-0.848;2023-04-24T13:50:55;19.50;99.90
42743;DHT22;28397;44.552;-0.848;2023-04-24T13:53:21;19.60;99.90
42743;DHT22;28397;44.552;-0.848;2023-04-24T13:55:47;19.70;99.90
42743;DHT22;28397;44.552;-0.848;2023-04-24T13:58:13;19.80;99.90
42743;DHT22;28397;44.552;-0.848;2023-04-24T14:00:39;19.90;99.90
42743;DHT22;28397;44.552;-0.848;2023-04-24T14:03:05;19.60;99.90
42743;DHT22;28397;44.552;-0.848;2023-04-24T14:05:30;19.60;99.90
42743;DHT22;28397;44.552;-0.848;2023-04-24T14:07:56;19.30;99.90
42743;DHT22;28397;44.552;-0.848;2023-04-24T14:10:21;18.90;99.90
42743;DHT22;28397;44.552;-0.848;2023-04-24T14:12:47;18.70;99.90
42743;DHT22;28397;44.552;-0.848;2023-04-24T14:15:13;18.40;99.90
42743;DHT22;28397;44.552;-0.848;2023-04-24T14:17:39;18.30;99.90
42743;DHT22;28397;44.552;-0.848;2023-04-24T14:20:05;18.30;99.90
42743;DHT22;28397;44.552;-0.848;2023-04-24T14:22:32;18.30;99.90
42743;DHT22;28397;44.552;-0.848;2023-04-24T14:24:58;18.20;99.90
42743;DHT22;28397;44.552;-0.848;2023-04-24T14:27:24;18.10;99.90
42743;DHT22;28397;44.552;-0.848;2023-04-24T14:29:50;18.00;99.90
42743;DHT22;28397;44.552;-0.848;2023-04-24T14:32:16;18.00;99.90
42743;DHT22;28397;44.552;-0.848;2023-04-24T14:34:41;18.00;99.90
42743;DHT22;28397;44.552;-0.848;2023-04-24T14:37:07;18.10;99.90
42743;DHT22;28397;44.552;-0.848;2023-04-24T14:39:33;18.20;99.90
42743;DHT22;28397;44.552;-0.848;2023-04-24T14:41:59;18.30;99.90
42743;DHT22;28397;44.552;-0.848;2023-04-24T14:44:26;18.20;99.90
42743;DHT22;28397;44.552;-0.848;2023-04-24T14:46:51;18.30;99.90
42743;DHT22;28397;44.552;-0.848;2023-04-24T14:49:17;17.80;99.90
42743;DHT22;28397;44.552;-0.848;2023-04-24T14:51:43;17.80;99.90
42743;DHT22;28397;44.552;-0.848;2023-04-24T14:54:09;17.70;99.90
42743;DHT22;28397;44.552;-0.848;2023-04-24T14:56:34;17.70;99.90
42743;DHT22;28397;44.552;-0.848;2023-04-24T14:59:01;17.70;99.90
42743;DHT22;28397;44.552;-0.848;2023-04-24T15:01:26;17.50;99.90
42743;DHT22;28397;44.552;-0.848;2023-04-24T15:03:52;17.50;99.90
42743;DHT22;28397;44.552;-0.848;2023-04-24T15:06:18;17.50;99.90
42743;DHT22;28397;44.552;-0.848;2023-04-24T15:08:44;17.50;99.90
42743;DHT22;28397;44.552;-0.848;2023-04-24T15:11:10;17.50;99.90
42743;DHT22;28397;44.552;-0.848;2023-04-24T15:13:36;17.30;99.90
42743;DHT22;28397;44.552;-0.848;2023-04-24T15:16:02;17.20;99.90
42743;DHT22;28397;44.552;-0.848;2023-04-24T15:18:28;17.30;99.90
42743;DHT22;28397;44.552;-0.848;2023-04-24T15:20:55;17.20;99.90
42743;DHT22;28397;44.552;-0.848;2023-04-24T15:23:21;17.10;99.90
42743;DHT22;28397;44.552;-0.848;2023-04-24T15:25:47;17.00;99.90
42743;DHT22;28397;44.552;-0.848;2023-04-24T15:28:13;17.10;99.90